Time;durP1;ratioP1;P1;durP2;ratioP2;P2;SDS_P1;SDS_P2;PMS_P1;PMS_P2;Temp;Humidity;BMP_temperature;BMP_pressure;BME280_temperature;BME280_humidity;BME280_pressure;Samples;Min_cycle;Max_cycle;Signal;HPM_P1;HPM_P2
2020/12/31 00:02:10;;;;;;;8.87;6.03;;;3.60;95.00;;;;;;5087505;28;20461;-71
2020/12/31 00:04:36;;;;;;;8.88;5.15;;;3.60;95.20;;;;;;5087433;28;20421;-74
2020/12/31 00:07:02;;;;;;;10.73;5.50;;;3.50;95.00;;;;;;5087855;28;20248;-73
2020/12/31 00:09:28;;;;;;;8.27;4.80;;;3.50;94.40;;;;;;5087076;28;20183;-73
2020/12/31 00:11:53;;;;;;;9.97;5.03;;;3.50;94.00;;;;;;5087366;28;20206;-74
2020/12/31 00:14:19;;;;;;;8.40;4.73;;;3.60;93.40;;;;;;5086758;28;20767;-71
2020/12/31 00:16:45;;;;;;;11.77;5.97;;;3.60;92.90;;;;;;5087438;28;20194;-72
2020/12/31 00:19:10;;;;;;;7.63;4.90;;;3.50;92.80;;;;;;5087073;28;20701;-72
2020/12/31 00:21:36;;;;;;;7.47;4.80;;;3.50;92.70;;;;;;5086946;28;20187;-71
2020/12/31 00:24:02;;;;;;;6.90;4.40;;;3.50;92.50;;;;;;5087145;28;20207;-71
2020/12/31 00:26:27;;;;;;;8.80;4.60;;;3.50;92.50;;;;;;5084864;28;20183;-74
2020/12/31 00:28:53;;;;;;;8.93;4.00;;;3.50;92.50;;;;;;5085899;28;20179;-72
2020/12/31 00:31:19;;;;;;;6.90;4.60;;;3.60;92.60;;;;;;5087071;28;20210;-74
2020/12/31 00:33:45;;;;;;;5.97;3.97;;;3.60;92.50;;;;;;5085652;28;20210;-73
2020/12/31 00:36:10;;;;;;;7.60;4.67;;;3.60;92.40;;;;;;5088413;28;20662;-73
2020/12/31 00:38:36;;;;;;;9.07;4.63;;;3.60;92.40;;;;;;5090271;28;20744;-72
2020/12/31 00:41:02;;;;;;;7.20;4.40;;;3.60;92.30;;;;;;5090117;28;20197;-72
2020/12/31 00:43:28;;;;;;;7.10;3.90;;;3.50;92.30;;;;;;5091126;28;20701;-73
2020/12/31 00:45:54;;;;;;;7.93;4.37;;;3.60;92.50;;;;;;5086460;28;20856;-73
2020/12/31 00:48:20;;;;;;;6.53;4.15;;;3.50;92.00;;;;;;5086921;28;20457;-72
2020/12/31 00:50:47;;;;;;;7.27;3.97;;;3.50;91.90;;;;;;5072154;28;20674;-73
2020/12/31 00:53:13;;;;;;;6.63;2.80;;;3.40;91.80;;;;;;5087225;28;20445;-72
2020/12/31 00:55:39;;;;;;;4.43;2.72;;;3.50;91.10;;;;;;5086762;28;20490;-72
2020/12/31 00:58:05;;;;;;;4.47;2.30;;;3.50;89.30;;;;;;5085716;28;20677;-73
2020/12/31 01:00:31;;;;;;;7.00;3.27;;;3.50;88.60;;;;;;5085427;28;20190;-73
2020/12/31 01:02:58;;;;;;;3.55;2.67;;;3.50;88.70;;;;;;5088220;28;20210;-74
2020/12/31 01:05:24;;;;;;;5.00;2.97;;;3.50;88.90;;;;;;5089045;28;20171;-74
2020/12/31 01:07:52;;;;;;;4.20;3.50;;;3.50;88.90;;;;;;5088741;28;20841;-72
2020/12/31 01:10:17;;;;;;;6.88;2.90;;;3.50;88.90;;;;;;5088649;28;20176;-73
2020/12/31 01:12:43;;;;;;;6.03;3.00;;;3.50;89.00;;;;;;5088569;28;20205;-72
2020/12/31 01:15:09;;;;;;;4.57;3.20;;;3.40;89.30;;;;;;5088388;28;20171;-72
2020/12/31 01:17:35;;;;;;;6.87;3.10;;;3.40;89.70;;;;;;5087411;28;20198;-73
2020/12/31 01:20:01;;;;;;;8.23;3.70;;;3.40;90.20;;;;;;5088313;28;20202;-71
2020/12/31 01:22:27;;;;;;;8.15;3.70;;;3.40;90.30;;;;;;5088799;28;20634;-73
2020/12/31 01:24:53;;;;;;;7.83;4.00;;;3.30;90.50;;;;;;5088986;28;20187;-72
2020/12/31 01:27:18;;;;;;;7.73;4.30;;;3.20;90.80;;;;;;5087692;28;20491;-73
2020/12/31 01:29:44;;;;;;;6.97;4.13;;;3.20;90.90;;;;;;5089022;28;20995;-72
2020/12/31 01:32:10;;;;;;;7.57;4.13;;;3.20;90.90;;;;;;5091045;28;20278;-71
2020/12/31 01:34:36;;;;;;;5.03;3.88;;;3.10;90.90;;;;;;5092226;28;20179;-72
2020/12/31 01:37:02;;;;;;;6.50;4.40;;;3.20;90.90;;;;;;5092836;28;20195;-72
2020/12/31 01:39:28;;;;;;;7.80;4.60;;;3.20;90.90;;;;;;5090362;28;20182;-71
2020/12/31 01:41:55;;;;;;;5.77;4.00;;;3.20;90.90;;;;;;5091629;28;20420;-72
2020/12/31 01:44:20;;;;;;;7.43;4.03;;;3.10;91.10;;;;;;5089840;28;20283;-71
2020/12/31 01:46:48;;;;;;;6.20;4.50;;;3.10;91.20;;;;;;5087084;28;20219;-72
2020/12/31 01:49:19;;;;;;;7.87;5.03;;;3.10;91.40;;;;;;5091840;28;20171;-73
2020/12/31 01:51:47;;;;;;;7.82;4.43;;;3.10;91.50;;;;;;5092677;28;20519;-73
2020/12/31 01:54:16;;;;;;;9.20;4.63;;;3.00;91.60;;;;;;5074883;28;20310;-74
2020/12/31 01:56:42;;;;;;;6.22;3.95;;;3.00;91.60;;;;;;5089852;28;20561;-74
2020/12/31 01:59:08;;;;;;;9.75;5.63;;;2.90;91.50;;;;;;5093136;28;20199;-72
2020/12/31 02:01:34;;;;;;;9.60;5.03;;;2.90;91.60;;;;;;5100633;28;20200;-73
2020/12/31 02:04:00;;;;;;;7.90;4.53;;;3.00;91.80;;;;;;5099695;28;20209;-73
2020/12/31 02:06:27;;;;;;;6.13;4.30;;;3.00;91.70;;;;;;5100200;28;20187;-73
2020/12/31 02:08:54;;;;;;;10.10;4.47;;;2.90;91.30;;;;;;5097051;28;20420;-73
2020/12/31 02:11:22;;;;;;;9.13;4.95;;;2.90;91.30;;;;;;5092053;28;20413;-73
2020/12/31 02:13:49;;;;;;;7.75;4.82;;;2.90;91.20;;;;;;5092933;28;20609;-74
2020/12/31 02:16:20;;;;;;;8.57;4.57;;;2.90;91.00;;;;;;5092238;28;20183;-74
2020/12/31 02:18:59;;;;;;;8.10;4.63;;;2.90;90.80;;;;;;5093118;28;20560;-75
2020/12/31 02:21:29;;;;;;;7.07;4.22;;;2.90;90.30;;;;;;5092450;28;20198;-74
2020/12/31 02:23:56;;;;;;;11.10;5.03;;;2.90;89.90;;;;;;5091391;28;20212;-74
2020/12/31 02:26:24;;;;;;;7.28;3.88;;;2.90;90.00;;;;;;5091915;28;20977;-74
2020/12/31 02:28:50;;;;;;;10.70;5.00;;;3.00;89.50;;;;;;5092466;28;20186;-73
2020/12/31 02:31:16;;;;;;;7.53;4.22;;;2.90;89.50;;;;;;5092417;28;20224;-74
2020/12/31 02:33:50;;;;;;;5.97;4.03;;;2.90;89.30;;;;;;5091628;28;20319;-75
2020/12/31 02:36:17;;;;;;;9.55;4.75;;;2.90;89.20;;;;;;5090915;28;20187;-73
2020/12/31 02:38:45;;;;;;;7.78;4.20;;;2.90;88.70;;;;;;5093731;28;20202;-74
2020/12/31 02:41:11;;;;;;;10.00;4.80;;;2.90;89.00;;;;;;5105547;28;20191;-74
2020/12/31 02:43:37;;;;;;;10.90;4.60;;;2.90;89.00;;;;;;5106327;28;20199;-74
2020/12/31 02:46:04;;;;;;;6.93;4.50;;;2.90;89.30;;;;;;5097014;28;20249;-74
2020/12/31 02:48:30;;;;;;;7.35;4.43;;;2.80;89.70;;;;;;5087003;28;20227;-74
2020/12/31 02:50:56;;;;;;;10.48;4.80;;;2.80;90.30;;;;;;5082113;28;20195;-74
2020/12/31 02:53:22;;;;;;;7.63;4.50;;;2.80;90.60;;;;;;5090654;28;20210;-73
2020/12/31 02:55:48;;;;;;;10.87;5.33;;;2.80;91.10;;;;;;5090472;28;20437;-74
2020/12/31 02:58:14;;;;;;;9.80;5.57;;;2.80;91.40;;;;;;5092652;28;20498;-73
2020/12/31 03:00:40;;;;;;;7.87;5.00;;;2.70;91.60;;;;;;5092208;28;20191;-73
2020/12/31 03:03:06;;;;;;;10.20;5.30;;;2.70;92.00;;;;;;5092500;28;20207;-74
2020/12/31 03:05:31;;;;;;;9.57;5.35;;;2.70;92.10;;;;;;5093496;28;20554;-73
2020/12/31 03:07:57;;;;;;;7.80;4.97;;;2.80;92.20;;;;;;5090591;28;20236;-74
2020/12/31 03:10:23;;;;;;;9.40;5.70;;;2.70;92.20;;;;;;5093417;28;20220;-74
2020/12/31 03:12:49;;;;;;;11.03;4.90;;;2.70;92.30;;;;;;5092566;28;20195;-74
2020/12/31 03:15:18;;;;;;;8.00;4.90;;;2.70;92.40;;;;;;5090303;28;20654;-74
2020/12/31 03:17:44;;;;;;;9.48;5.10;;;2.60;92.50;;;;;;5089789;28;20198;-74
2020/12/31 03:20:09;;;;;;;9.50;4.83;;;2.60;92.60;;;;;;5091182;28;20549;-74
2020/12/31 03:22:35;;;;;;;9.40;4.70;;;2.50;92.60;;;;;;5077712;28;20617;-73
2020/12/31 03:25:02;;;;;;;14.80;5.80;;;2.50;92.60;;;;;;5091007;28;20223;-74
2020/12/31 03:27:27;;;;;;;8.52;5.00;;;2.40;92.60;;;;;;5090895;28;20465;-74
2020/12/31 03:29:53;;;;;;;7.30;4.00;;;2.30;92.50;;;;;;5091174;28;20245;-75
2020/12/31 03:32:19;;;;;;;7.60;4.80;;;2.30;92.60;;;;;;5089774;28;20207;-73
2020/12/31 03:34:46;;;;;;;11.13;4.72;;;2.20;93.00;;;;;;5090391;28;20215;-74
2020/12/31 03:37:12;;;;;;;10.50;5.32;;;2.20;93.10;;;;;;5090436;28;20237;-74
2020/12/31 03:39:38;;;;;;;8.98;5.00;;;2.10;93.50;;;;;;5091022;28;20711;-75
2020/12/31 03:42:04;;;;;;;13.40;5.70;;;2.10;93.90;;;;;;5089248;28;20191;-74
2020/12/31 03:44:30;;;;;;;12.53;6.67;;;2.00;94.30;;;;;;5090274;28;20634;-74
2020/12/31 03:46:55;;;;;;;10.00;6.07;;;1.90;94.60;;;;;;5089054;28;20471;-73
2020/12/31 03:49:21;;;;;;;13.20;5.90;;;1.90;95.10;;;;;;5082598;28;20259;-73
2020/12/31 03:51:47;;;;;;;11.00;5.50;;;1.90;95.40;;;;;;5084828;28;20194;-73
2020/12/31 03:54:12;;;;;;;8.53;5.13;;;1.90;95.60;;;;;;5088825;28;20211;-74
2020/12/31 03:56:38;;;;;;;9.70;5.60;;;1.70;95.70;;;;;;5090406;28;20282;-73
2020/12/31 03:59:04;;;;;;;8.10;5.10;;;1.70;95.90;;;;;;5090831;28;20189;-73
2020/12/31 04:01:31;;;;;;;12.10;6.10;;;1.70;96.00;;;;;;5090169;28;20969;-72
2020/12/31 04:03:57;;;;;;;8.98;5.20;;;1.60;96.10;;;;;;5090390;28;20866;-72
2020/12/31 04:06:23;;;;;;;10.77;5.00;;;1.60;96.20;;;;;;5088406;28;20187;-73
2020/12/31 04:08:49;;;;;;;8.40;5.47;;;1.60;96.20;;;;;;5090551;28;20179;-74
2020/12/31 04:11:15;;;;;;;12.27;5.68;;;1.50;96.20;;;;;;5090008;28;20566;-72
2020/12/31 04:13:41;;;;;;;9.57;5.17;;;1.40;96.50;;;;;;5091259;28;20260;-74
2020/12/31 04:16:06;;;;;;;12.60;5.97;;;1.50;96.60;;;;;;5091067;28;20202;-73
2020/12/31 04:18:32;;;;;;;9.93;5.67;;;1.50;96.50;;;;;;5089062;28;20224;-72
2020/12/31 04:20:58;;;;;;;9.10;5.10;;;1.50;96.50;;;;;;5090556;28;20638;-73
2020/12/31 04:23:24;;;;;;;10.50;6.00;;;1.50;96.50;;;;;;5090093;28;20210;-72
2020/12/31 04:25:50;;;;;;;11.85;6.15;;;1.40;96.40;;;;;;5089485;28;20432;-72
2020/12/31 04:28:16;;;;;;;11.55;6.07;;;1.40;96.40;;;;;;5086685;28;20215;-72
2020/12/31 04:30:45;;;;;;;9.45;5.53;;;1.40;96.50;;;;;;5089372;28;20214;-72
2020/12/31 04:33:11;;;;;;;11.98;5.82;;;1.30;96.50;;;;;;5090379;28;20537;-73
2020/12/31 04:35:37;;;;;;;10.50;5.43;;;1.30;96.50;;;;;;5088298;28;20187;-72
2020/12/31 04:38:02;;;;;;;10.53;5.97;;;1.30;96.50;;;;;;5090027;28;20456;-72
2020/12/31 04:40:28;;;;;;;10.60;6.40;;;1.30;96.40;;;;;;5088806;28;20190;-72
2020/12/31 04:42:54;;;;;;;9.63;5.50;;;1.20;96.40;;;;;;5089233;28;20215;-73
2020/12/31 04:45:21;;;;;;;8.25;5.07;;;1.20;96.40;;;;;;5089896;28;20205;-75
2020/12/31 04:48:08;;;;;;;8.50;4.95;;;1.10;96.40;;;;;;5090260;28;20268;-73
2020/12/31 04:50:43;;;;;;;9.25;4.75;;;1.10;96.40;;;;;;5089753;28;20568;-74
2020/12/31 04:53:10;;;;;;;8.63;5.22;;;1.10;96.30;;;;;;5090295;28;20206;-73
2020/12/31 04:55:46;;;;;;;14.88;6.43;;;1.10;96.30;;;;;;5088406;28;20179;-73
2020/12/31 04:58:13;;;;;;;10.23;5.93;;;1.10;96.70;;;;;;5092879;28;20668;-75
2020/12/31 05:00:40;;;;;;;11.40;5.80;;;1.10;96.90;;;;;;5091951;28;20661;-74
2020/12/31 05:03:07;;;;;;;12.63;5.85;;;1.10;96.80;;;;;;5091216;28;20238;-74
2020/12/31 05:05:34;;;;;;;10.10;6.05;;;1.00;96.80;;;;;;5087418;28;20183;-73
2020/12/31 05:08:00;;;;;;;14.38;6.03;;;0.90;97.00;;;;;;5087858;28;20243;-74
2020/12/31 05:10:27;;;;;;;12.77;5.38;;;0.90;97.10;;;;;;5087091;28;20186;-75
2020/12/31 05:13:07;;;;;;;8.45;4.53;;;0.90;97.20;;;;;;5088043;28;20298;-74
2020/12/31 05:15:40;;;;;;;8.02;4.38;;;0.90;97.20;;;;;;5087582;28;20563;-75
2020/12/31 05:18:38;;;;;;;5.25;3.60;;;1.00;96.90;;;;;;5087998;28;20193;-75
2020/12/31 05:21:15;;;;;;;5.57;3.25;;;1.10;95.80;;;;;;5062243;28;20195;-75
2020/12/31 05:23:43;;;;;;;6.57;3.60;;;1.10;94.50;;;;;;5057289;28;20745;-75
2020/12/31 05:26:09;;;;;;;5.90;3.38;;;1.20;93.00;;;;;;5066711;28;20677;-74
2020/12/31 05:28:40;;;;;;;6.95;3.42;;;1.30;92.10;;;;;;5084977;28;20199;-73
2020/12/31 05:31:13;;;;;;;5.07;3.47;;;1.30;91.70;;;;;;5072006;28;20226;-73
2020/12/31 05:33:40;;;;;;;5.35;2.80;;;1.40;91.00;;;;;;5085128;28;20234;-73
2020/12/31 05:36:23;;;;;;;4.32;3.05;;;1.40;90.40;;;;;;5085054;28;20564;-74
2020/12/31 05:38:57;;;;;;;7.50;3.40;;;1.50;90.00;;;;;;5087338;28;20778;-74
2020/12/31 05:41:24;;;;;;;3.85;2.97;;;1.30;89.90;;;;;;5071357;28;20191;-74
2020/12/31 05:43:54;;;;;;;8.02;3.75;;;1.30;89.90;;;;;;5068012;28;20239;-74
2020/12/31 05:46:20;;;;;;;5.32;3.13;;;1.30;89.50;;;;;;5067179;28;20197;-74
2020/12/31 05:48:58;;;;;;;6.07;3.63;;;1.30;89.50;;;;;;5051156;28;20196;-74
2020/12/31 05:51:28;;;;;;;7.38;3.17;;;1.40;89.90;;;;;;5077312;28;20222;-74
2020/12/31 05:54:05;;;;;;;6.43;3.85;;;1.50;89.70;;;;;;5084720;28;20203;-75
2020/12/31 05:56:33;;;;;;;6.80;3.83;;;1.50;90.00;;;;;;5078550;28;20219;-73
2020/12/31 05:59:07;;;;;;;7.40;3.60;;;1.40;89.90;;;;;;5086087;28;20183;-74
2020/12/31 06:01:38;;;;;;;5.50;3.20;;;1.40;88.60;;;;;;5086006;28;20758;-74
2020/12/31 06:04:19;;;;;;;6.93;3.67;;;1.30;87.70;;;;;;5085584;28;20222;-74
2020/12/31 06:06:50;;;;;;;6.55;3.90;;;1.40;87.70;;;;;;5087303;28;20725;-74
2020/12/31 06:09:26;;;;;;;5.70;3.50;;;1.40;87.70;;;;;;5087813;28;20205;-73
2020/12/31 06:11:58;;;;;;;5.25;3.28;;;1.30;87.60;;;;;;5075370;28;20179;-74
2020/12/31 06:14:27;;;;;;;5.55;3.13;;;1.30;88.10;;;;;;5085642;28;20183;-73
2020/12/31 06:17:02;;;;;;;6.70;3.83;;;1.30;88.90;;;;;;5088214;28;20175;-74
2020/12/31 06:19:29;;;;;;;6.65;3.47;;;1.30;89.50;;;;;;5091031;28;20182;-74
2020/12/31 06:22:03;;;;;;;8.60;3.88;;;1.40;89.70;;;;;;5090980;28;20183;-74
2020/12/31 06:24:34;;;;;;;6.90;3.60;;;1.40;89.50;;;;;;5090047;28;20186;-73
2020/12/31 06:27:05;;;;;;;7.30;4.30;;;1.40;89.50;;;;;;5090687;28;20211;-73
2020/12/31 06:29:37;;;;;;;8.38;4.10;;;1.40;89.20;;;;;;5090983;28;20175;-73
2020/12/31 06:32:11;;;;;;;7.10;4.13;;;1.40;89.30;;;;;;5090957;28;20183;-74
2020/12/31 06:34:38;;;;;;;6.32;3.80;;;1.40;89.70;;;;;;5090322;28;20186;-73
2020/12/31 06:37:08;;;;;;;6.35;3.63;;;1.40;89.90;;;;;;5089208;28;20190;-73
2020/12/31 06:39:35;;;;;;;7.72;4.70;;;1.40;90.10;;;;;;5090513;28;20881;-74
2020/12/31 06:42:00;;;;;;;10.82;4.60;;;1.40;90.30;;;;;;5089235;28;20226;-73
2020/12/31 06:44:31;;;;;;;6.17;3.80;;;1.50;90.20;;;;;;5089939;28;20264;-73
2020/12/31 06:46:57;;;;;;;9.95;5.50;;;1.50;89.90;;;;;;5087450;28;20206;-74
2020/12/31 06:49:43;;;;;;;7.90;4.35;;;1.50;89.20;;;;;;5078076;28;20184;-74
2020/12/31 06:52:23;;;;;;;7.55;4.05;;;1.50;88.70;;;;;;5089681;28;20178;-75
2020/12/31 06:54:49;;;;;;;8.25;4.25;;;1.60;88.10;;;;;;5088166;28;20565;-73
2020/12/31 06:57:37;;;;;;;8.05;4.07;;;1.60;88.10;;;;;;5090066;28;20187;-74
2020/12/31 07:00:05;;;;;;;8.98;4.47;;;1.60;88.00;;;;;;5089959;28;20187;-73
2020/12/31 07:02:43;;;;;;;7.18;4.38;;;1.70;88.00;;;;;;5090271;28;20210;-75
2020/12/31 07:05:29;;;;;;;7.38;4.47;;;1.80;87.70;;;;;;5088397;28;20195;-75
2020/12/31 07:07:55;;;;;;;8.50;4.97;;;1.90;87.30;;;;;;5089919;28;20280;-74
2020/12/31 07:10:20;;;;;;;7.50;4.60;;;1.90;87.00;;;;;;5090172;28;20175;-74
2020/12/31 07:12:46;;;;;;;11.43;5.80;;;1.90;87.00;;;;;;5089318;28;20223;-74
2020/12/31 07:15:18;;;;;;;9.40;5.37;;;2.00;86.60;;;;;;5089577;28;20266;-75
2020/12/31 07:17:45;;;;;;;14.35;7.93;;;2.00;86.60;;;;;;5089408;28;20183;-75
2020/12/31 07:20:14;;;;;;;7.00;4.78;;;2.00;86.50;;;;;;5089967;28;20187;-74
2020/12/31 07:22:40;;;;;;;10.73;5.65;;;2.10;86.50;;;;;;5089726;28;20211;-75
2020/12/31 07:25:15;;;;;;;8.77;5.15;;;2.10;86.30;;;;;;5089314;28;20183;-74
2020/12/31 07:27:42;;;;;;;8.95;5.47;;;2.10;86.30;;;;;;5088485;28;20297;-74
2020/12/31 07:30:08;;;;;;;11.93;5.75;;;2.20;86.20;;;;;;5088995;28;20171;-74
2020/12/31 07:32:55;;;;;;;8.77;4.90;;;2.20;86.20;;;;;;5089971;28;20214;-74
2020/12/31 07:35:38;;;;;;;9.00;5.25;;;2.10;85.50;;;;;;5088982;28;20206;-74
2020/12/31 07:38:06;;;;;;;12.95;6.00;;;2.10;86.00;;;;;;5088112;28;20193;-73
2020/12/31 07:40:33;;;;;;;12.05;6.22;;;2.00;86.20;;;;;;5089723;28;20565;-73
2020/12/31 07:42:59;;;;;;;9.60;5.30;;;2.10;86.60;;;;;;5090311;28;20617;-73
2020/12/31 07:45:26;;;;;;;9.68;5.18;;;2.20;86.90;;;;;;5089758;28;20728;-74
2020/12/31 07:47:53;;;;;;;8.30;5.07;;;2.20;86.90;;;;;;5079463;28;20215;-73
2020/12/31 07:50:20;;;;;;;11.52;5.40;;;2.30;86.30;;;;;;5086543;28;20175;-73
2020/12/31 07:52:46;;;;;;;11.95;6.53;;;2.40;86.50;;;;;;5089407;28;20302;-74
2020/12/31 07:55:12;;;;;;;13.05;6.22;;;2.40;86.20;;;;;;5088579;28;20194;-74
2020/12/31 07:57:39;;;;;;;14.33;7.10;;;2.40;85.50;;;;;;5089663;28;20175;-74
2020/12/31 08:00:06;;;;;;;11.90;6.60;;;2.50;85.70;;;;;;5088991;28;20432;-74
2020/12/31 08:02:33;;;;;;;9.07;5.90;;;2.50;85.50;;;;;;5089280;28;20234;-75
2020/12/31 08:04:58;;;;;;;12.68;6.15;;;2.60;85.90;;;;;;5090118;28;20194;-78
2020/12/31 08:07:24;;;;;;;11.40;6.50;;;2.70;85.90;;;;;;5090449;28;20211;-75
2020/12/31 08:09:51;;;;;;;8.87;5.43;;;2.70;85.20;;;;;;5088580;28;20658;-73
2020/12/31 08:12:16;;;;;;;12.13;5.90;;;2.80;85.30;;;;;;5089616;28;20674;-73
2020/12/31 08:14:46;;;;;;;12.53;6.00;;;2.80;84.90;;;;;;5088200;28;20206;-73
2020/12/31 08:17:13;;;;;;;9.50;5.70;;;2.80;84.30;;;;;;5088827;28;20191;-74
2020/12/31 08:19:41;;;;;;;9.35;5.57;;;2.80;83.80;;;;;;5087118;28;20329;-74
2020/12/31 08:22:16;;;;;;;11.43;6.05;;;2.70;83.70;;;;;;5088764;28;20266;-74
2020/12/31 08:25:02;;;;;;;14.43;6.80;;;2.70;84.00;;;;;;5087100;28;20198;-74
2020/12/31 08:27:29;;;;;;;10.43;5.70;;;2.70;84.70;;;;;;5088639;28;20566;-74
2020/12/31 08:29:57;;;;;;;12.20;6.28;;;2.80;84.60;;;;;;5087402;28;20210;-74
2020/12/31 08:32:26;;;;;;;11.93;6.75;;;2.90;84.10;;;;;;5088595;28;20203;-75
2020/12/31 08:34:54;;;;;;;11.18;6.55;;;2.90;83.40;;;;;;5086694;28;20228;-76
2020/12/31 08:37:24;;;;;;;11.07;7.30;;;2.90;83.60;;;;;;5089210;28;20187;-75
2020/12/31 08:39:52;;;;;;;11.25;6.53;;;3.00;83.60;;;;;;5088386;28;20189;-75
2020/12/31 08:42:28;;;;;;;12.52;7.00;;;3.10;83.70;;;;;;5087070;28;20187;-75
2020/12/31 08:44:55;;;;;;;10.38;6.00;;;3.10;83.80;;;;;;5086714;28;20202;-74
2020/12/31 08:47:25;;;;;;;10.57;6.82;;;3.20;83.70;;;;;;5081917;28;20214;-76
2020/12/31 08:49:53;;;;;;;10.57;6.32;;;3.20;83.10;;;;;;5079138;28;20186;-73
2020/12/31 08:52:21;;;;;;;18.27;7.40;;;3.20;83.10;;;;;;5087893;28;20179;-74
2020/12/31 08:55:13;;;;;;;10.70;6.43;;;3.30;83.00;;;;;;5086772;28;20264;-73
2020/12/31 08:57:39;;;;;;;13.30;6.63;;;3.30;82.50;;;;;;5086606;28;20182;-75
2020/12/31 09:00:06;;;;;;;12.03;6.60;;;3.40;82.40;;;;;;5086951;28;20792;-73
2020/12/31 09:02:32;;;;;;;12.68;6.60;;;3.50;82.40;;;;;;5086520;28;20440;-73
2020/12/31 09:05:11;;;;;;;13.37;6.40;;;3.50;82.20;;;;;;5086232;28;20187;-73
2020/12/31 09:07:37;;;;;;;12.35;7.10;;;3.60;82.20;;;;;;5088746;28;20457;-75
2020/12/31 09:10:17;;;;;;;12.03;6.30;;;3.60;81.80;;;;;;5088320;28;20262;-74
2020/12/31 09:12:44;;;;;;;13.77;6.83;;;3.60;81.70;;;;;;5089173;28;20699;-74
2020/12/31 09:15:20;;;;;;;11.17;6.50;;;3.70;81.80;;;;;;5088647;28;20409;-74
2020/12/31 09:17:46;;;;;;;11.10;5.90;;;3.70;81.80;;;;;;5088713;28;20424;-73
2020/12/31 09:20:19;;;;;;;11.30;6.65;;;3.70;81.90;;;;;;5088689;28;20429;-75
2020/12/31 09:22:46;;;;;;;14.02;6.45;;;3.80;81.90;;;;;;5087456;28;20298;-75
2020/12/31 09:25:12;;;;;;;14.95;7.28;;;3.90;81.50;;;;;;5086409;28;20553;-77
2020/12/31 09:27:39;;;;;;;13.77;7.30;;;3.90;81.50;;;;;;5086705;28;20202;-75
2020/12/31 09:30:06;;;;;;;12.70;7.00;;;3.90;81.40;;;;;;5086737;28;20845;-75
2020/12/31 09:32:32;;;;;;;11.87;6.97;;;3.90;81.40;;;;;;5088106;28;20203;-75
2020/12/31 09:34:59;;;;;;;12.10;7.00;;;3.90;81.20;;;;;;5086972;28;20413;-74
2020/12/31 09:37:24;;;;;;;12.17;7.10;;;3.90;81.50;;;;;;5087964;28;20429;-73
2020/12/31 09:39:50;;;;;;;13.40;6.97;;;4.00;81.50;;;;;;5087777;28;20854;-72
2020/12/31 09:42:16;;;;;;;14.33;7.87;;;4.10;81.50;;;;;;5086736;28;20191;-71
2020/12/31 09:44:42;;;;;;;16.67;7.67;;;4.20;81.20;;;;;;5085960;28;20257;-74
2020/12/31 09:47:08;;;;;;;12.10;7.33;;;4.20;81.10;;;;;;5082236;28;20887;-73
2020/12/31 09:49:34;;;;;;;11.00;6.93;;;4.20;81.50;;;;;;5077361;28;20216;-73
2020/12/31 09:52:00;;;;;;;14.10;7.53;;;4.30;81.40;;;;;;5087568;28;20421;-73
2020/12/31 09:54:26;;;;;;;13.47;7.23;;;4.40;81.40;;;;;;5089337;28;20239;-74
2020/12/31 09:56:52;;;;;;;15.10;8.17;;;4.40;80.20;;;;;;5095784;28;20456;-74
2020/12/31 09:59:18;;;;;;;10.57;7.07;;;4.40;79.70;;;;;;5097412;28;20790;-73
2020/12/31 10:01:46;;;;;;;13.83;7.63;;;4.40;79.50;;;;;;5097063;28;20198;-73
2020/12/31 10:04:11;;;;;;;12.73;6.77;;;4.40;78.30;;;;;;5096147;28;20278;-72
2020/12/31 10:06:37;;;;;;;12.10;6.30;;;4.40;77.60;;;;;;5093841;28;20466;-74
2020/12/31 10:09:03;;;;;;;9.30;6.37;;;4.30;77.30;;;;;;5095397;28;20186;-72
2020/12/31 10:11:29;;;;;;;11.63;6.17;;;4.30;77.70;;;;;;5092710;28;20236;-72
2020/12/31 10:13:55;;;;;;;10.27;5.80;;;4.30;77.80;;;;;;5092762;28;20955;-73
2020/12/31 10:16:20;;;;;;;10.63;5.53;;;4.30;78.00;;;;;;5093442;28;20413;-74
2020/12/31 10:18:46;;;;;;;9.23;5.43;;;4.40;78.40;;;;;;5092971;28;20508;-74
2020/12/31 10:21:13;;;;;;;9.80;5.30;;;4.50;78.10;;;;;;5092084;28;20187;-74
2020/12/31 10:23:39;;;;;;;10.95;6.43;;;4.60;77.30;;;;;;5090333;28;20207;-74
2020/12/31 10:26:04;;;;;;;8.77;5.73;;;4.80;77.70;;;;;;5091584;28;20190;-74
2020/12/31 10:28:30;;;;;;;13.07;6.37;;;4.90;77.40;;;;;;5090655;28;20223;-74
2020/12/31 10:30:59;;;;;;;12.20;6.80;;;5.10;76.50;;;;;;5089849;28;20280;-73
2020/12/31 10:33:25;;;;;;;11.57;6.13;;;5.20;75.80;;;;;;5089745;28;20892;-73
2020/12/31 10:35:51;;;;;;;12.77;6.70;;;5.40;75.40;;;;;;5088955;28;20421;-71
2020/12/31 10:38:17;;;;;;;9.67;6.03;;;5.50;74.80;;;;;;5092247;28;20191;-74
2020/12/31 10:40:42;;;;;;;11.07;5.47;;;5.40;73.70;;;;;;5089980;28;20220;-76
2020/12/31 10:43:08;;;;;;;10.33;6.37;;;5.30;73.60;;;;;;5100145;28;20460;-73
2020/12/31 10:45:34;;;;;;;7.50;5.60;;;5.30;73.60;;;;;;5089701;28;20284;-74
2020/12/31 10:47:59;;;;;;;10.07;5.30;;;5.20;73.20;;;;;;5076799;28;20212;-74
2020/12/31 10:50:26;;;;;;;10.77;5.93;;;5.10;73.30;;;;;;5083994;28;20187;-74
2020/12/31 10:52:52;;;;;;;10.10;5.63;;;4.90;74.80;;;;;;5087664;28;21002;-73
2020/12/31 10:55:18;;;;;;;10.30;5.67;;;4.80;77.10;;;;;;5087294;28;20464;-73
2020/12/31 10:57:43;;;;;;;11.13;5.73;;;4.50;79.70;;;;;;5087733;28;20218;-73
2020/12/31 11:00:09;;;;;;;9.53;5.33;;;4.20;83.10;;;;;;5088225;28;20338;-73
2020/12/31 11:02:35;;;;;;;12.67;6.13;;;4.00;85.50;;;;;;5086790;28;20207;-73
2020/12/31 11:05:05;;;;;;;10.40;6.07;;;3.90;86.80;;;;;;5085772;28;20196;-74
2020/12/31 11:07:31;;;;;;;9.57;5.73;;;3.80;87.70;;;;;;5087555;28;20199;-75
2020/12/31 11:09:56;;;;;;;9.30;6.03;;;3.90;89.00;;;;;;5088118;28;20530;-73
2020/12/31 11:12:22;;;;;;;12.03;6.10;;;3.90;89.30;;;;;;5086400;28;20475;-73
2020/12/31 11:14:48;;;;;;;12.00;6.50;;;3.90;89.50;;;;;;5087886;28;20564;-73
2020/12/31 11:17:14;;;;;;;10.80;5.60;;;3.90;89.90;;;;;;5087783;28;20198;-74
2020/12/31 11:19:39;;;;;;;18.80;6.90;;;4.00;90.20;;;;;;5085327;28;20225;-75
2020/12/31 11:22:07;;;;;;;9.90;5.17;;;4.10;90.30;;;;;;5088782;28;20456;-75
2020/12/31 11:24:32;;;;;;;11.90;6.00;;;4.10;89.90;;;;;;5088233;28;20187;-75
2020/12/31 11:26:58;;;;;;;6.30;4.73;;;4.10;90.10;;;;;;5088466;28;20792;-74
2020/12/31 11:29:24;;;;;;;10.30;5.30;;;4.20;90.20;;;;;;5089566;28;20542;-73
2020/12/31 11:31:49;;;;;;;9.07;5.93;;;4.30;90.00;;;;;;5088264;28;20194;-74
2020/12/31 11:34:15;;;;;;;6.93;5.40;;;4.30;89.50;;;;;;5085650;28;20309;-74
2020/12/31 11:36:41;;;;;;;8.13;5.53;;;4.40;90.00;;;;;;5087621;28;20183;-72
2020/12/31 11:39:06;;;;;;;9.60;5.60;;;4.50;88.70;;;;;;5087843;28;20191;-75
2020/12/31 11:41:32;;;;;;;8.50;5.47;;;4.40;89.20;;;;;;5087497;28;20222;-74
2020/12/31 11:43:58;;;;;;;9.40;5.23;;;4.60;89.70;;;;;;5087202;28;20223;-73
2020/12/31 11:46:23;;;;;;;9.27;5.20;;;4.60;89.00;;;;;;5086048;28;20617;-74
2020/12/31 11:48:49;;;;;;;12.47;6.23;;;4.70;88.90;;;;;;5072219;28;20356;-74
2020/12/31 11:51:15;;;;;;;12.03;5.57;;;4.80;87.60;;;;;;5086334;28;20175;-73
2020/12/31 11:53:41;;;;;;;9.37;6.23;;;4.90;88.00;;;;;;5089420;28;20210;-74
2020/12/31 11:56:08;;;;;;;12.37;5.90;;;5.00;87.70;;;;;;5087636;28;20458;-74
2020/12/31 11:58:34;;;;;;;8.90;5.77;;;5.20;87.30;;;;;;5087369;28;20191;-74
2020/12/31 12:01:00;;;;;;;9.47;6.40;;;5.30;86.30;;;;;;5087464;28;20512;-74
2020/12/31 12:03:26;;;;;;;12.00;6.40;;;5.40;85.70;;;;;;5088744;28;20539;-73
2020/12/31 12:05:52;;;;;;;12.27;6.67;;;5.60;84.90;;;;;;5087845;28;20211;-74
2020/12/31 12:08:21;;;;;;;11.37;6.10;;;5.60;84.10;;;;;;5087057;28;20469;-73
2020/12/31 12:10:48;;;;;;;11.10;7.30;;;5.60;83.70;;;;;;5088059;28;20433;-75
2020/12/31 12:13:14;;;;;;;13.93;6.53;;;5.50;82.70;;;;;;5088538;28;20540;-74
2020/12/31 12:15:41;;;;;;;13.53;6.70;;;5.50;83.80;;;;;;5085916;28;20558;-73
2020/12/31 12:18:07;;;;;;;10.20;6.17;;;5.60;83.70;;;;;;5087346;28;20421;-74
2020/12/31 12:20:33;;;;;;;11.50;7.03;;;5.30;83.70;;;;;;5087482;28;20463;-73
2020/12/31 12:22:59;;;;;;;11.33;6.67;;;5.20;84.40;;;;;;5088372;28;20471;-74
2020/12/31 12:25:24;;;;;;;13.03;6.10;;;5.10;85.20;;;;;;5087460;28;20195;-75
2020/12/31 12:27:50;;;;;;;9.37;6.33;;;5.20;85.00;;;;;;5088191;28;20221;-74
2020/12/31 12:30:16;;;;;;;9.83;6.37;;;5.00;84.40;;;;;;5087923;28;20190;-73
2020/12/31 12:32:45;;;;;;;11.40;6.80;;;5.00;85.30;;;;;;5086667;28;20211;-74
2020/12/31 12:35:11;;;;;;;11.60;6.83;;;4.90;85.90;;;;;;5087179;28;20419;-74
2020/12/31 12:37:37;;;;;;;11.77;6.53;;;5.10;86.30;;;;;;5087111;28;20522;-74
2020/12/31 12:40:04;;;;;;;10.27;5.70;;;5.10;85.20;;;;;;5088454;28;20516;-74
2020/12/31 12:42:32;;;;;;;11.70;6.40;;;5.00;84.60;;;;;;5085996;28;20221;-75
2020/12/31 12:44:58;;;;;;;12.20;5.33;;;5.10;85.00;;;;;;5087050;28;20449;-74
2020/12/31 12:47:23;;;;;;;8.70;5.40;;;5.10;84.70;;;;;;5082110;28;20469;-73
2020/12/31 12:49:49;;;;;;;12.83;6.03;;;5.10;84.60;;;;;;5081040;28;20512;-76
2020/12/31 12:52:15;;;;;;;10.07;5.73;;;5.10;84.70;;;;;;5087677;28;20197;-74
2020/12/31 12:54:41;;;;;;;10.57;5.40;;;5.00;84.70;;;;;;5086159;28;20191;-74
2020/12/31 12:57:06;;;;;;;8.53;5.50;;;5.10;84.90;;;;;;5087996;28;20210;-74